createdAt,value
2017-07-29T00:00:01.940Z,12.3
2017-07-29T00:01:11.891Z,12.4
2017-07-29T00:02:22.158Z,12.39
2017-07-29T00:03:32.108Z,12.39
2017-07-29T00:04:42.468Z,12.28
2017-07-29T00:05:52.424Z,12.37
2017-07-29T00:07:02.690Z,12.33
2017-07-29T00:08:12.642Z,12.25
2017-07-29T00:09:22.906Z,12.3
2017-07-29T00:10:33.170Z,12.28
2017-07-29T00:11:43.122Z,12.28
2017-07-29T00:12:53.392Z,12.32
2017-07-29T00:14:03.660Z,12.4
2017-07-29T00:15:13.928Z,12.39
2017-07-29T00:16:24.193Z,12.33
2017-07-29T00:17:34.458Z,12.3
2017-07-29T00:18:44.404Z,12.28
2017-07-29T00:19:54.670Z,12.26
2017-07-29T00:21:04.627Z,12.32
2017-07-29T00:22:14.893Z,12.3
2017-07-29T00:23:25.160Z,12.28
2017-07-29T00:24:35.428Z,12.26
2017-07-29T00:25:45.692Z,12.21
2017-07-29T00:26:55.961Z,12.25
2017-07-29T00:28:06.327Z,12.17
2017-07-29T00:29:16.595Z,12.17
2017-07-29T00:30:26.869Z,12.15
2017-07-29T00:31:37.141Z,12.15
2017-07-29T00:32:47.413Z,12.11
2017-07-29T00:33:57.683Z,12.11
2017-07-29T00:35:07.949Z,12.07
2017-07-29T00:36:17.905Z,11.99
2017-07-29T00:37:28.169Z,11.95
2017-07-29T00:38:38.130Z,11.85
2017-07-29T00:39:48.416Z,11.93
2017-07-29T00:40:58.687Z,11.78
2017-07-29T00:42:08.950Z,11.74
2017-07-29T00:43:18.903Z,11.74
2017-07-29T00:44:29.169Z,11.77
2017-07-29T00:45:38.808Z,11.62
2017-07-29T00:46:49.076Z,11.62
2017-07-29T00:47:59.345Z,11.59
2017-07-29T00:49:09.298Z,11.62
2017-07-29T00:50:18.935Z,11.56
2017-07-29T00:51:29.197Z,11.49
2017-07-29T00:52:39.467Z,11.55
2017-07-29T00:53:49.734Z,11.45
2017-07-29T00:54:59.998Z,11.41
2017-07-29T00:56:09.948Z,11.38
2017-07-29T00:57:19.913Z,11.3
2017-07-29T00:58:30.179Z,11.3
2017-07-29T00:59:40.448Z,11.31
2017-07-29T01:00:50.722Z,11.22
2017-07-29T01:02:00.674Z,11.33
2017-07-29T01:03:10.308Z,11.35
2017-07-29T01:04:19.942Z,11.4
2017-07-29T01:05:29.898Z,11.43
2017-07-29T01:06:40.162Z,11.43
2017-07-29T01:07:50.440Z,11.4
2017-07-29T01:09:00.702Z,11.37
2017-07-29T01:10:10.655Z,11.38
2017-07-29T01:11:20.605Z,11.4
2017-07-29T01:12:30.560Z,11.44
2017-07-29T01:13:40.827Z,11.37
2017-07-29T01:14:51.098Z,11.35
2017-07-29T01:16:01.049Z,11.27
2017-07-29T01:17:11.000Z,11.2
2017-07-29T01:18:21.276Z,11.23
2017-07-29T01:19:31.546Z,11.16
2017-07-29T01:20:41.497Z,11.12
2017-07-29T01:21:51.759Z,11.04
2017-07-29T01:23:02.033Z,11.07
2017-07-29T01:24:11.986Z,11.07
2017-07-29T01:25:22.255Z,11.02
2017-07-29T01:26:32.213Z,11.04
2017-07-29T01:27:42.479Z,10.94
2017-07-29T01:28:52.751Z,11.05
2017-07-29T01:30:03.016Z,11.02
2017-07-29T01:31:12.664Z,10.97
2017-07-29T01:32:22.928Z,11.04
2017-07-29T01:33:33.196Z,10.97
2017-07-29T01:34:43.473Z,11.04
2017-07-29T01:35:53.739Z,10.95
2017-07-29T01:37:04.011Z,10.98
2017-07-29T01:38:14.279Z,10.97
2017-07-29T01:39:24.228Z,10.9
2017-07-29T01:40:34.495Z,10.87
2017-07-29T01:41:44.772Z,11
2017-07-29T01:42:54.725Z,10.92
2017-07-29T01:44:04.993Z,11
2017-07-29T01:45:15.258Z,10.92
2017-07-29T01:46:25.226Z,10.97
2017-07-29T01:47:35.496Z,10.97
2017-07-29T01:48:45.776Z,11.01
2017-07-29T01:49:58.042Z,11.02
2017-07-29T01:51:08.312Z,11.08
2017-07-29T01:52:18.260Z,11.13
2017-07-29T01:53:28.530Z,11.13
2017-07-29T01:54:38.796Z,11.19
2017-07-29T01:55:49.061Z,11.31
2017-07-29T01:56:59.338Z,11.23
2017-07-29T01:58:09.611Z,11.31
2017-07-29T01:59:19.566Z,11.23
2017-07-29T02:00:29.836Z,11.23
2017-07-29T02:01:40.102Z,11.25
2017-07-29T02:02:50.372Z,11.2
2017-07-29T02:04:00.633Z,11.22
2017-07-29T02:05:10.275Z,11.22
2017-07-29T02:06:20.560Z,11.16
2017-07-29T02:07:30.512Z,11.13
2017-07-29T02:08:40.773Z,11.05
2017-07-29T02:09:51.038Z,11.12
2017-07-29T02:11:00.362Z,11.13
2017-07-29T02:12:10.627Z,11.01
2017-07-29T02:13:21.044Z,11.02
2017-07-29T02:14:31.312Z,10.98
2017-07-29T02:15:41.584Z,11.02
2017-07-29T02:16:51.852Z,11.08
2017-07-29T02:18:01.798Z,11.04
2017-07-29T02:19:12.068Z,11.04
2017-07-29T02:20:22.338Z,11.04
2017-07-29T02:21:32.292Z,11.1
2017-07-29T02:22:42.245Z,11.08
2017-07-29T02:23:52.513Z,11.12
2017-07-29T02:25:02.777Z,11.1
2017-07-29T02:26:13.066Z,11.1
2017-07-29T02:27:23.330Z,11.08
2017-07-29T02:28:33.278Z,11.12
2017-07-29T02:29:43.541Z,11.01
2017-07-29T02:30:53.806Z,11.07
2017-07-29T02:32:04.093Z,11.04
2017-07-29T02:33:14.368Z,11.05
2017-07-29T02:34:24.323Z,11
2017-07-29T02:35:34.592Z,11.02
2017-07-29T02:36:44.550Z,11.01
2017-07-29T02:37:54.504Z,11.04
2017-07-29T02:39:04.779Z,11.04
2017-07-29T02:40:15.048Z,11.04
2017-07-29T02:41:25.003Z,11.01
2017-07-29T02:42:35.269Z,11.04
2017-07-29T02:43:45.541Z,11.02
2017-07-29T02:44:55.813Z,11.01
2017-07-29T02:46:06.074Z,10.98
2017-07-29T02:47:16.337Z,11.15
2017-07-29T02:48:26.606Z,11.12
2017-07-29T02:49:36.871Z,11.1
2017-07-29T02:50:47.142Z,11.1
2017-07-29T02:51:57.424Z,11.05
2017-07-29T02:53:07.702Z,11.01
2017-07-29T02:54:17.968Z,11.07
2017-07-29T02:55:28.232Z,11.07
2017-07-29T02:56:38.190Z,11.07
2017-07-29T02:57:48.455Z,11.07
2017-07-29T02:58:58.715Z,11.08
2017-07-29T03:00:08.354Z,11.05
2017-07-29T03:01:18.629Z,11.1
2017-07-29T03:02:28.914Z,11.08
2017-07-29T03:03:39.180Z,11.12
2017-07-29T03:04:49.448Z,11.18
2017-07-29T03:05:59.397Z,11.13
2017-07-29T03:07:09.661Z,11.12
2017-07-29T03:08:19.615Z,11.12
2017-07-29T03:09:29.567Z,11.2
2017-07-29T03:10:39.834Z,11.12
2017-07-29T03:11:50.100Z,11.12
2017-07-29T03:13:00.365Z,11.12
2017-07-29T03:14:10.003Z,11.15
2017-07-29T03:15:20.267Z,11.08
2017-07-29T03:16:30.532Z,11.07
2017-07-29T03:17:40.803Z,11.08
2017-07-29T03:18:51.067Z,11.08
2017-07-29T03:20:01.024Z,11.04
2017-07-29T03:21:11.291Z,11.07
2017-07-29T03:22:21.561Z,11.02
2017-07-29T03:23:31.830Z,11.01
2017-07-29T03:24:41.780Z,11.02
2017-07-29T03:25:51.741Z,11.04
2017-07-29T03:27:01.705Z,11.05
2017-07-29T03:28:11.976Z,11.07
2017-07-29T03:29:22.241Z,11.01
2017-07-29T03:30:32.511Z,11.05
2017-07-29T03:31:42.791Z,11.12
2017-07-29T03:32:52.753Z,11.16
2017-07-29T03:34:03.028Z,11.13
2017-07-29T03:35:12.988Z,11.18
2017-07-29T03:36:23.258Z,11.3
2017-07-29T03:37:33.522Z,11.26
2017-07-29T03:38:43.483Z,11.34
2017-07-29T03:39:53.745Z,11.41
2017-07-29T03:41:03.697Z,11.44
2017-07-29T03:42:13.963Z,11.55
2017-07-29T03:43:24.234Z,11.52
2017-07-29T03:44:34.501Z,11.58
2017-07-29T03:45:44.764Z,11.58
2017-07-29T03:46:55.029Z,11.62
2017-07-29T03:48:04.993Z,11.6
2017-07-29T03:49:14.939Z,11.67
2017-07-29T03:50:24.891Z,11.71
2017-07-29T03:51:35.165Z,11.74
2017-07-29T03:52:45.440Z,11.83
2017-07-29T03:53:55.396Z,11.85
2017-07-29T03:55:05.041Z,11.91
2017-07-29T03:56:14.676Z,11.96
2017-07-29T03:57:24.945Z,12.03
2017-07-29T03:58:34.894Z,11.99
2017-07-29T03:59:45.164Z,12.14
2017-07-29T04:00:55.431Z,12.23
2017-07-29T04:02:05.703Z,12.12
2017-07-29T04:03:15.985Z,12.2
2017-07-29T04:04:26.256Z,12.36
2017-07-29T04:05:35.897Z,12.36
2017-07-29T04:06:45.855Z,12.35
2017-07-29T04:07:56.123Z,12.5
2017-07-29T04:09:06.390Z,12.45
2017-07-29T04:10:16.659Z,12.53
2017-07-29T04:11:26.297Z,12.53
2017-07-29T04:12:36.264Z,12.61
2017-07-29T04:13:46.219Z,12.62
2017-07-29T04:14:56.485Z,12.68
2017-07-29T04:16:06.754Z,12.81
2017-07-29T04:17:17.042Z,12.83
2017-07-29T04:18:26.995Z,12.88
2017-07-29T04:19:37.261Z,12.87
2017-07-29T04:20:47.530Z,12.94
2017-07-29T04:22:00.723Z,12.98
2017-07-29T04:23:10.988Z,12.99
2017-07-29T04:24:21.264Z,13.05
2017-07-29T04:25:31.533Z,13.05
2017-07-29T04:26:41.488Z,13.11
2017-07-29T04:27:51.755Z,13.17
2017-07-29T04:29:02.022Z,13.21
2017-07-29T04:30:12.292Z,13.23
2017-07-29T04:31:22.249Z,13.26
2017-07-29T04:32:32.515Z,13.33
2017-07-29T04:33:42.780Z,13.27
2017-07-29T04:34:53.049Z,13.36
2017-07-29T04:36:03.320Z,13.4
2017-07-29T04:37:13.280Z,13.4
2017-07-29T04:38:23.551Z,13.55
2017-07-29T04:39:33.825Z,13.57
2017-07-29T04:40:44.099Z,13.62
2017-07-29T04:41:54.052Z,13.7
2017-07-29T04:43:04.320Z,13.76
2017-07-29T04:44:14.601Z,13.82
2017-07-29T04:45:24.867Z,13.82
2017-07-29T04:46:35.140Z,13.93
2017-07-29T04:47:45.412Z,13.94
2017-07-29T04:48:55.368Z,13.91
2017-07-29T04:50:05.337Z,14.04
2017-07-29T04:51:15.633Z,14.08
2017-07-29T04:52:25.907Z,14.16
2017-07-29T04:53:35.544Z,14.23
2017-07-29T04:54:45.811Z,14.3
2017-07-29T04:55:56.083Z,14.37
2017-07-29T04:57:06.045Z,14.38
2017-07-29T04:58:16.319Z,14.37
2017-07-29T04:59:26.588Z,14.4
2017-07-29T05:00:36.542Z,14.43
2017-07-29T05:01:46.811Z,14.41
2017-07-29T05:02:57.084Z,14.49
2017-07-29T05:04:07.355Z,14.52
2017-07-29T05:05:17.625Z,14.44
2017-07-29T05:06:27.895Z,14.48
2017-07-29T05:07:38.163Z,14.45
2017-07-29T05:08:48.446Z,14.49
2017-07-29T05:09:58.711Z,14.55
2017-07-29T05:11:08.981Z,14.49
2017-07-29T05:12:19.254Z,14.45
2017-07-29T05:13:29.214Z,14.52
2017-07-29T05:14:39.176Z,14.49
2017-07-29T05:15:49.449Z,14.41
2017-07-29T05:16:59.723Z,14.49
2017-07-29T05:18:09.994Z,14.48
2017-07-29T05:19:20.269Z,14.45
2017-07-29T05:20:30.535Z,14.52
2017-07-29T05:21:40.801Z,14.43
2017-07-29T05:22:51.065Z,14.38
2017-07-29T05:24:01.017Z,14.41
2017-07-29T05:25:11.298Z,14.38
2017-07-29T05:26:21.570Z,14.38
2017-07-29T05:27:31.839Z,14.4
2017-07-29T05:28:41.795Z,14.41
2017-07-29T05:29:51.768Z,14.45
2017-07-29T05:31:01.719Z,14.41
2017-07-29T05:32:11.988Z,14.45
2017-07-29T05:33:21.939Z,14.41
2017-07-29T05:34:31.895Z,14.45
2017-07-29T05:35:41.859Z,14.49
2017-07-29T05:36:52.130Z,14.49
2017-07-29T05:38:02.396Z,14.56
2017-07-29T05:39:12.666Z,14.67
2017-07-29T05:40:22.927Z,14.7
2017-07-29T05:41:33.193Z,14.63
2017-07-29T05:42:43.463Z,14.73
2017-07-29T05:43:53.737Z,14.73
2017-07-29T05:45:04.015Z,14.79
2017-07-29T05:46:14.285Z,14.92
2017-07-29T05:47:24.553Z,14.9
2017-07-29T05:48:34.504Z,14.9
2017-07-29T05:49:44.459Z,14.9
2017-07-29T05:50:54.732Z,14.94
2017-07-29T05:52:04.374Z,14.99
2017-07-29T05:53:14.645Z,14.97
2017-07-29T05:54:24.600Z,15.04
2017-07-29T05:55:34.549Z,15.19
2017-07-29T05:56:44.507Z,15.19
2017-07-29T05:57:54.776Z,15.27
2017-07-29T05:59:04.730Z,15.36
2017-07-29T06:00:14.998Z,15.37
2017-07-29T06:01:25.269Z,15.48
2017-07-29T06:02:34.915Z,15.6
2017-07-29T06:03:45.187Z,15.69
2017-07-29T06:04:55.461Z,15.85
2017-07-29T06:06:05.100Z,15.85
2017-07-29T06:07:14.744Z,15.83
2017-07-29T06:08:25.010Z,15.91
2017-07-29T06:09:34.980Z,15.99
2017-07-29T06:10:45.249Z,16.02
2017-07-29T06:11:55.239Z,16.02
2017-07-29T06:13:05.195Z,16.09
2017-07-29T06:14:15.144Z,16.16
2017-07-29T06:15:24.785Z,16.24
2017-07-29T06:16:35.065Z,16.24
2017-07-29T06:17:45.335Z,16.24
2017-07-29T06:18:55.604Z,16.41
2017-07-29T06:20:05.875Z,16.41
2017-07-29T06:21:15.833Z,16.51
2017-07-29T06:22:26.113Z,16.46
2017-07-29T06:23:36.074Z,16.43
2017-07-29T06:24:46.341Z,16.54
2017-07-29T06:25:56.613Z,16.54
2017-07-29T06:27:06.888Z,16.49
2017-07-29T06:28:17.159Z,16.57
2017-07-29T06:29:27.430Z,16.65
2017-07-29T06:30:37.072Z,16.51
2017-07-29T06:31:47.349Z,16.64
2017-07-29T06:32:57.629Z,16.55
2017-07-29T06:34:07.603Z,16.59
2017-07-29T06:35:17.874Z,16.73
2017-07-29T06:36:28.146Z,16.72
2017-07-29T06:37:38.418Z,16.77
2017-07-29T06:38:48.387Z,16.72
2017-07-29T06:39:58.660Z,16.82
2017-07-29T06:41:08.941Z,16.87
2017-07-29T06:42:19.216Z,16.84
2017-07-29T06:43:29.496Z,16.95
2017-07-29T06:44:39.138Z,16.98
2017-07-29T06:45:49.090Z,17.02
2017-07-29T06:46:59.371Z,17.07
2017-07-29T06:48:09.643Z,17.07
2017-07-29T06:49:19.314Z,17.04
2017-07-29T06:50:29.599Z,17.05
2017-07-29T06:51:39.553Z,17.1
2017-07-29T06:52:49.821Z,17.13
2017-07-29T06:54:00.094Z,17.27
2017-07-29T06:55:10.378Z,17.24
2017-07-29T06:56:20.336Z,17.3
2017-07-29T06:57:30.626Z,17.37
2017-07-29T06:58:40.902Z,17.35
2017-07-29T06:59:51.177Z,17.44
2017-07-29T07:01:01.458Z,17.47
2017-07-29T07:02:11.450Z,17.54
2017-07-29T07:03:21.439Z,17.49
2017-07-29T07:04:31.746Z,17.57
2017-07-29T07:05:42.015Z,17.63
2017-07-29T07:06:52.287Z,17.66
2017-07-29T07:08:02.243Z,17.63
2017-07-29T07:09:12.533Z,17.79
2017-07-29T07:10:22.818Z,17.88
2017-07-29T07:11:33.093Z,18
2017-07-29T07:12:43.392Z,18.03
2017-07-29T07:13:53.352Z,18.08
2017-07-29T07:15:03.622Z,18.18
2017-07-29T07:16:13.580Z,18.23
2017-07-29T07:17:23.855Z,18.34
2017-07-29T07:18:34.133Z,18.41
2017-07-29T07:19:44.408Z,18.48
2017-07-29T07:20:54.365Z,18.49
2017-07-29T07:22:04.652Z,18.61
2017-07-29T07:23:14.919Z,18.57
2017-07-29T07:24:25.186Z,18.55
2017-07-29T07:25:35.453Z,18.52
2017-07-29T07:26:45.722Z,18.55
2017-07-29T07:27:55.993Z,18.53
2017-07-29T07:29:06.262Z,18.43
2017-07-29T07:30:16.529Z,18.46
2017-07-29T07:31:26.798Z,18.52
2017-07-29T07:32:36.798Z,18.43
2017-07-29T07:33:47.074Z,18.57
2017-07-29T07:34:57.347Z,18.51
2017-07-29T07:36:07.629Z,18.55
2017-07-29T07:37:17.586Z,18.57
2017-07-29T07:38:27.856Z,18.55
2017-07-29T07:39:37.832Z,18.48
2017-07-29T07:40:47.792Z,18.42
2017-07-29T07:41:58.067Z,18.55
2017-07-29T07:43:07.711Z,18.37
2017-07-29T07:44:17.679Z,18.34
2017-07-29T07:45:27.972Z,18.31
2017-07-29T07:46:38.241Z,18.36
2017-07-29T07:47:48.204Z,18.34
2017-07-29T07:48:58.160Z,18.28
2017-07-29T07:50:08.117Z,18.21
2017-07-29T07:51:18.395Z,18.16
2017-07-29T07:52:28.667Z,18.11
2017-07-29T07:53:38.941Z,18.03
2017-07-29T07:54:49.216Z,17.98
2017-07-29T07:55:59.484Z,17.93
2017-07-29T07:57:09.444Z,17.87
2017-07-29T07:58:19.718Z,17.86
2017-07-29T07:59:29.996Z,17.72
2017-07-29T08:00:40.267Z,17.6
2017-07-29T08:01:50.544Z,17.52
2017-07-29T08:03:00.504Z,17.44
2017-07-29T08:04:10.465Z,17.41
2017-07-29T08:05:20.421Z,17.34
2017-07-29T08:06:30.696Z,17.31
2017-07-29T08:07:40.974Z,17.32
2017-07-29T08:08:51.245Z,17.3
2017-07-29T08:10:01.213Z,17.19
2017-07-29T08:11:11.172Z,17.2
2017-07-29T08:12:21.449Z,17.02
2017-07-29T08:13:31.406Z,17.04
2017-07-29T08:14:41.685Z,17.02
2017-07-29T08:15:51.954Z,17.04
2017-07-29T08:17:02.224Z,17.02
2017-07-29T08:18:12.494Z,16.91
2017-07-29T08:19:22.767Z,16.86
2017-07-29T08:20:33.037Z,16.94
2017-07-29T08:21:42.994Z,16.86
2017-07-29T08:22:52.959Z,16.8
2017-07-29T08:24:03.231Z,16.86
2017-07-29T08:25:13.501Z,16.72
2017-07-29T08:26:23.772Z,16.76
2017-07-29T08:27:34.041Z,16.79
2017-07-29T08:28:44.311Z,16.72
2017-07-29T08:29:54.267Z,16.66
2017-07-29T08:31:04.225Z,16.72
2017-07-29T08:32:14.498Z,16.69
2017-07-29T08:33:24.771Z,16.84
2017-07-29T08:34:34.733Z,16.77
2017-07-29T08:35:44.689Z,16.82
2017-07-29T08:36:54.645Z,16.87
2017-07-29T08:38:04.923Z,16.86
2017-07-29T08:39:14.893Z,16.97
2017-07-29T08:40:25.164Z,16.87
2017-07-29T08:41:35.430Z,16.97
2017-07-29T08:42:45.397Z,17.01
2017-07-29T08:43:55.679Z,17.12
2017-07-29T08:45:05.639Z,17.09
2017-07-29T08:46:16.040Z,17.1
2017-07-29T08:47:26.314Z,17.1
2017-07-29T08:48:36.273Z,17.17
2017-07-29T08:49:46.547Z,17.22
2017-07-29T08:50:56.818Z,17.12
2017-07-29T08:52:07.097Z,17.2
2017-07-29T08:53:16.821Z,17.27
2017-07-29T08:54:27.105Z,17.28
2017-07-29T08:55:37.376Z,17.35
2017-07-29T08:56:47.653Z,17.46
2017-07-29T08:57:57.612Z,17.41
2017-07-29T08:59:07.884Z,17.49
2017-07-29T09:00:18.157Z,17.59
2017-07-29T09:01:28.119Z,17.66
2017-07-29T09:02:38.387Z,17.66
2017-07-29T09:03:48.664Z,17.71
2017-07-29T09:04:58.948Z,17.6
2017-07-29T09:06:09.224Z,17.84
2017-07-29T09:07:19.493Z,17.8
2017-07-29T09:08:29.764Z,17.8
2017-07-29T09:09:40.051Z,17.78
2017-07-29T09:10:50.010Z,17.86
2017-07-29T09:12:00.282Z,17.75
2017-07-29T09:13:09.931Z,17.72
2017-07-29T09:14:19.568Z,17.65
2017-07-29T09:15:29.843Z,17.75
2017-07-29T09:16:39.484Z,17.68
2017-07-29T09:17:49.751Z,17.78
2017-07-29T09:19:00.020Z,17.68
2017-07-29T09:20:10.397Z,17.78
2017-07-29T09:21:19.412Z,17.59
2017-07-29T09:22:29.070Z,17.78
2017-07-29T09:23:39.345Z,17.71
2017-07-29T09:24:49.619Z,17.76
2017-07-29T09:25:59.902Z,17.79
2017-07-29T09:27:10.178Z,17.78
2017-07-29T09:28:20.453Z,17.76
2017-07-29T09:29:30.413Z,17.8
2017-07-29T09:30:40.370Z,17.82
2017-07-29T09:31:50.655Z,17.9
2017-07-29T09:33:00.617Z,17.98
2017-07-29T09:34:10.581Z,18.08
2017-07-29T09:35:20.853Z,18.12
2017-07-29T09:36:30.809Z,18.3
2017-07-29T09:37:40.459Z,18.26
2017-07-29T09:38:50.730Z,18.39
2017-07-29T09:40:00.691Z,18.46
2017-07-29T09:41:10.653Z,18.45
2017-07-29T09:42:20.940Z,18.52
2017-07-29T09:43:31.216Z,18.63
2017-07-29T09:44:41.172Z,18.7
2017-07-29T09:45:51.446Z,18.71
2017-07-29T09:47:01.716Z,18.78
2017-07-29T09:48:12.000Z,18.78
2017-07-29T09:49:22.274Z,18.91
2017-07-29T09:50:32.235Z,18.88
2017-07-29T09:51:42.506Z,18.88
2017-07-29T09:52:52.164Z,18.94
2017-07-29T09:54:02.145Z,19
2017-07-29T09:55:12.431Z,19.01
2017-07-29T09:56:22.399Z,19.07
2017-07-29T09:57:32.677Z,19.04
2017-07-29T09:58:42.633Z,19.05
2017-07-29T09:59:52.906Z,19.16
2017-07-29T10:01:02.864Z,19.11
2017-07-29T10:02:13.141Z,19.08
2017-07-29T10:03:23.419Z,18.97
2017-07-29T10:04:33.380Z,19.04
2017-07-29T10:05:43.661Z,18.98
2017-07-29T10:06:53.931Z,18.92
2017-07-29T10:08:04.202Z,19.01
2017-07-29T10:09:14.473Z,18.91
2017-07-29T10:10:24.743Z,18.81
2017-07-29T10:11:34.700Z,18.82
2017-07-29T10:12:44.659Z,18.68
2017-07-29T10:13:54.628Z,18.58
2017-07-29T10:15:04.596Z,18.53
2017-07-29T10:16:14.242Z,18.61
2017-07-29T10:17:23.894Z,18.49
2017-07-29T10:18:34.176Z,18.63
2017-07-29T10:19:44.449Z,18.63
2017-07-29T10:20:54.728Z,18.61
2017-07-29T10:22:05.002Z,18.64
2017-07-29T10:23:15.276Z,18.49
2017-07-29T10:24:25.239Z,18.57
2017-07-29T10:25:35.543Z,18.45
2017-07-29T10:26:45.503Z,18.46
2017-07-29T10:27:55.780Z,18.39
2017-07-29T10:29:05.742Z,18.42
2017-07-29T10:30:15.389Z,18.46
2017-07-29T10:31:25.680Z,18.52
2017-07-29T10:32:35.969Z,18.6
2017-07-29T10:33:45.929Z,18.48
2017-07-29T10:34:56.202Z,18.58
2017-07-29T10:36:05.534Z,18.57
2017-07-29T10:37:15.497Z,18.71
2017-07-29T10:38:25.769Z,18.82
2017-07-29T10:39:36.054Z,18.97
2017-07-29T10:40:46.026Z,18.86
2017-07-29T10:41:55.986Z,18.94
2017-07-29T10:43:05.948Z,19.04
2017-07-29T10:44:15.908Z,19.01
2017-07-29T10:45:25.868Z,18.98
2017-07-29T10:46:35.835Z,19.07
2017-07-29T10:47:45.809Z,19.19
2017-07-29T10:48:56.084Z,19.29
2017-07-29T10:50:05.726Z,19.29
2017-07-29T10:51:15.690Z,19.34
2017-07-29T10:52:25.973Z,19.34
2017-07-29T10:53:35.632Z,19.47
2017-07-29T10:54:45.906Z,19.62
2017-07-29T10:55:56.207Z,19.63
2017-07-29T10:57:06.513Z,19.79
2017-07-29T10:58:16.474Z,19.87
2017-07-29T10:59:26.753Z,19.93
2017-07-29T11:00:37.028Z,19.94
2017-07-29T11:01:47.311Z,19.94
2017-07-29T11:02:57.269Z,20.04
2017-07-29T11:04:07.227Z,20.17
2017-07-29T11:05:17.505Z,20.24
2017-07-29T11:06:27.150Z,20.42
2017-07-29T11:07:37.111Z,20.44
2017-07-29T11:08:47.389Z,20.56
2017-07-29T11:09:57.345Z,20.64
2017-07-29T11:11:07.627Z,20.66
2017-07-29T11:12:17.588Z,20.59
2017-07-29T11:13:27.866Z,20.63
2017-07-29T11:14:37.515Z,20.63
2017-07-29T11:15:47.789Z,20.46
2017-07-29T11:16:57.751Z,20.4
2017-07-29T11:18:07.395Z,20.42
2017-07-29T11:19:17.358Z,20.34
2017-07-29T11:20:27.643Z,20.33
2017-07-29T11:21:37.297Z,20.32
2017-07-29T11:22:47.573Z,20.21
2017-07-29T11:23:57.850Z,20.22
2017-07-29T11:25:07.811Z,19.99
2017-07-29T11:26:18.083Z,19.9
2017-07-29T11:27:28.042Z,19.92
2017-07-29T11:28:37.702Z,19.57
2017-07-29T11:29:47.978Z,19.55
2017-07-29T11:30:58.249Z,19.45
2017-07-29T11:32:08.205Z,19.39
2017-07-29T11:33:18.169Z,19.22
2017-07-29T11:34:28.458Z,19.12
2017-07-29T11:35:38.103Z,19.11
2017-07-29T11:36:48.381Z,19.04
2017-07-29T11:37:58.024Z,18.89
2017-07-29T11:39:08.008Z,18.89
2017-07-29T11:40:17.968Z,18.94
2017-07-29T11:41:28.253Z,18.82
2017-07-29T11:42:38.530Z,18.78
2017-07-29T11:43:48.811Z,18.79
2017-07-29T11:44:59.084Z,18.76
2017-07-29T11:46:09.360Z,18.83
2017-07-29T11:47:19.341Z,18.68
2017-07-29T11:48:29.622Z,18.76
2017-07-29T11:49:39.579Z,18.79
2017-07-29T11:50:49.538Z,18.74
2017-07-29T11:51:59.808Z,18.81
2017-07-29T11:53:09.777Z,18.81
2017-07-29T11:54:20.079Z,18.76
2017-07-29T11:55:30.354Z,18.7
2017-07-29T11:56:39.995Z,18.64
2017-07-29T11:57:49.955Z,18.43
2017-07-29T11:58:59.908Z,18.45
2017-07-29T12:00:09.869Z,18.48
2017-07-29T12:01:19.826Z,18.31
2017-07-29T12:02:30.104Z,18.34
2017-07-29T12:03:39.799Z,18.18
2017-07-29T12:04:50.078Z,18.23
2017-07-29T12:06:00.373Z,18.18
2017-07-29T12:07:10.651Z,18.09
2017-07-29T12:08:20.945Z,18.02
2017-07-29T12:09:31.011Z,18.09
2017-07-29T12:10:41.285Z,18.11
2017-07-29T12:11:51.561Z,18.19
2017-07-29T12:13:01.520Z,18.27
2017-07-29T12:14:11.478Z,18.21
2017-07-29T12:15:21.760Z,18.28
2017-07-29T12:16:31.724Z,18.28
2017-07-29T12:17:41.690Z,18.28
2017-07-29T12:18:51.965Z,18.19
2017-07-29T12:20:02.237Z,18.33
2017-07-29T12:21:12.192Z,18.28
2017-07-29T12:22:22.148Z,18.28
2017-07-29T12:23:32.423Z,18.27
2017-07-29T12:24:42.386Z,18.31
2017-07-29T12:25:52.678Z,18.36
2017-07-29T12:27:02.957Z,18.46
2017-07-29T12:28:12.916Z,18.61
2017-07-29T12:29:22.874Z,18.83
2017-07-29T12:30:33.142Z,18.97
2017-07-29T12:31:43.417Z,19.29
2017-07-29T12:32:53.696Z,19.67
2017-07-29T12:34:03.654Z,19.78
2017-07-29T12:35:13.933Z,19.97
2017-07-29T12:36:23.898Z,20.21
2017-07-29T12:37:33.860Z,20.29
2017-07-29T12:38:44.135Z,20.4
2017-07-29T12:39:54.413Z,20.59
2017-07-29T12:41:04.690Z,20.82
2017-07-29T12:42:14.660Z,20.96
2017-07-29T12:43:24.950Z,21.05
2017-07-29T12:44:35.221Z,21.13
2017-07-29T12:45:45.206Z,21.23
2017-07-29T12:46:55.166Z,21.22
2017-07-29T12:48:05.127Z,21.3
2017-07-29T12:49:15.093Z,21.35
2017-07-29T12:50:25.365Z,21.32
2017-07-29T12:51:35.330Z,21.3
2017-07-29T12:52:45.301Z,21.1
2017-07-29T12:53:55.579Z,20.75
2017-07-29T12:55:05.856Z,20.75
2017-07-29T12:56:16.132Z,20.77
2017-07-29T12:57:26.400Z,20.58
2017-07-29T12:58:36.048Z,20.5
2017-07-29T12:59:46.014Z,20.3
2017-07-29T13:00:55.978Z,20.24
2017-07-29T13:02:06.259Z,20.24
2017-07-29T13:03:16.218Z,20.21
2017-07-29T13:04:26.496Z,20.11
2017-07-29T13:05:36.463Z,20.17
2017-07-29T13:06:46.741Z,20.1
2017-07-29T13:07:57.016Z,20.18
2017-07-29T13:09:07.289Z,20.18
2017-07-29T13:10:17.248Z,20.29
2017-07-29T13:11:27.520Z,20.1
2017-07-29T13:12:37.792Z,19.96
2017-07-29T13:13:47.759Z,20.08
2017-07-29T13:14:57.724Z,20.11
2017-07-29T13:16:07.681Z,20.29
2017-07-29T13:17:17.953Z,20.18
2017-07-29T13:18:28.221Z,20.32
2017-07-29T13:19:38.496Z,20.33
2017-07-29T13:20:48.461Z,20.39
2017-07-29T13:21:58.741Z,20.49
2017-07-29T13:23:08.385Z,20.64
2017-07-29T13:24:18.344Z,20.66
2017-07-29T13:25:28.925Z,20.74
2017-07-29T13:26:39.197Z,20.6
2017-07-29T13:27:49.475Z,20.19
2017-07-29T13:28:59.748Z,19.84
2017-07-29T13:30:10.045Z,19.99
2017-07-29T13:31:20.322Z,19.93
2017-07-29T13:32:29.967Z,20.03
2017-07-29T13:33:40.261Z,20.04
2017-07-29T13:34:50.537Z,20.1
2017-07-29T13:36:00.497Z,20
2017-07-29T13:37:10.459Z,19.89
2017-07-29T13:38:20.736Z,19.78
2017-07-29T13:39:30.707Z,19.87
2017-07-29T13:40:40.984Z,20
2017-07-29T13:41:50.943Z,19.82
2017-07-29T13:43:01.217Z,19.81
2017-07-29T13:44:11.183Z,19.92
2017-07-29T13:45:21.454Z,19.96
2017-07-29T13:46:31.731Z,20.3
2017-07-29T13:47:41.691Z,20.58
2017-07-29T13:48:51.654Z,20.74
2017-07-29T13:50:01.931Z,21.08
2017-07-29T13:51:11.889Z,21.32
2017-07-29T13:52:21.857Z,21.59
2017-07-29T13:53:32.132Z,21.81
2017-07-29T13:54:42.405Z,22.01
2017-07-29T13:55:52.680Z,22.43
2017-07-29T13:57:02.647Z,23.39
2017-07-29T13:58:12.924Z,24.22
2017-07-29T13:59:23.209Z,24.79
2017-07-29T14:00:33.179Z,25.19
2017-07-29T14:01:42.830Z,25.24
2017-07-29T14:02:52.803Z,25.37
2017-07-29T14:04:03.095Z,25.4
2017-07-29T14:05:12.753Z,25.41
2017-07-29T14:06:22.717Z,25.31
2017-07-29T14:07:32.997Z,25.26
2017-07-29T14:08:42.960Z,25.11
2017-07-29T14:09:53.242Z,25
2017-07-29T14:11:03.517Z,24.93
2017-07-29T14:12:13.482Z,24.82
2017-07-29T14:13:23.761Z,24.47
2017-07-29T14:14:34.041Z,24.24
2017-07-29T14:15:44.322Z,24.19
2017-07-29T14:16:54.595Z,23.76
2017-07-29T14:18:04.872Z,23.4
2017-07-29T14:19:15.155Z,23.26
2017-07-29T14:20:25.125Z,23.06
2017-07-29T14:21:35.401Z,23.04
2017-07-29T14:22:45.731Z,22.88
2017-07-29T14:23:55.701Z,22.86
2017-07-29T14:25:05.045Z,22.93
2017-07-29T14:26:15.326Z,22.83
2017-07-29T14:27:25.600Z,22.8
2017-07-29T14:28:35.557Z,22.68
2017-07-29T14:29:45.523Z,22.56
2017-07-29T14:30:55.798Z,22.33
2017-07-29T14:32:05.132Z,22.28
2017-07-29T14:33:15.408Z,22.22
2017-07-29T14:34:25.377Z,22.08
2017-07-29T14:35:35.341Z,21.83
2017-07-29T14:36:45.622Z,21.72
2017-07-29T14:37:55.905Z,21.65
2017-07-29T14:39:05.888Z,21.51
2017-07-29T14:40:16.160Z,21.41
2017-07-29T14:41:26.127Z,21.23
2017-07-29T14:42:36.156Z,21.13
2017-07-29T14:43:45.804Z,21.04
2017-07-29T14:44:56.080Z,21
2017-07-29T14:46:06.358Z,20.93
2017-07-29T14:47:16.630Z,20.85
2017-07-29T14:48:26.895Z,20.78
2017-07-29T14:49:37.173Z,20.68
2017-07-29T14:50:47.138Z,20.6
2017-07-29T14:51:57.413Z,20.6
2017-07-29T14:53:07.394Z,20.63
2017-07-29T14:54:17.670Z,20.58
2017-07-29T14:55:27.943Z,20.53
2017-07-29T14:56:37.901Z,20.49
2017-07-29T14:57:47.857Z,20.49
2017-07-29T14:58:57.498Z,20.4
2017-07-29T15:00:07.773Z,20.48
2017-07-29T15:01:17.735Z,20.52
2017-07-29T15:02:28.007Z,20.46
2017-07-29T15:03:37.654Z,20.63
2017-07-29T15:04:47.929Z,20.71
2017-07-29T15:05:58.201Z,20.85